createdAt,value
2019-02-24T00:00:10.641Z,103626.25
2019-02-24T00:02:39.582Z,103626.59
2019-02-24T00:05:08.363Z,103621.28
2019-02-24T00:07:37.235Z,103618.98
2019-02-24T00:10:06.790Z,103624.31
2019-02-24T00:12:35.532Z,103620.94
2019-02-24T00:15:07.202Z,103619.60
2019-02-24T00:17:36.021Z,103579.42
2019-02-24T00:20:06.448Z,103609.53
2019-02-24T00:22:35.229Z,103613.18
2019-02-24T00:25:05.326Z,103609.53
2019-02-24T00:27:34.013Z,103608.59
2019-02-24T00:30:02.871Z,103615.34
2019-02-24T00:32:31.644Z,103608.45
2019-02-24T00:35:00.327Z,103606.03
2019-02-24T00:37:29.324Z,103602.77
2019-02-24T00:39:58.254Z,103602.87
2019-02-24T00:42:27.113Z,103607.58
2019-02-24T00:44:55.856Z,103609.99
2019-02-24T00:47:24.585Z,103614.84
2019-02-24T00:49:53.282Z,103610.38
2019-02-24T00:52:22.240Z,103607.47
2019-02-24T00:54:50.899Z,103599.02
2019-02-24T00:57:19.917Z,103595.02
2019-02-24T00:59:48.749Z,103606.63
2019-02-24T01:02:17.458Z,103600.20
2019-02-24T01:05:04.349Z,103603.45
2019-02-24T01:07:49.952Z,103595.93
2019-02-24T01:10:19.760Z,103595.13
2019-02-24T01:12:48.553Z,103597.64
2019-02-24T01:15:17.429Z,103601.16
2019-02-24T01:17:46.044Z,103605.72
2019-02-24T01:20:15.261Z,103610.66
2019-02-24T01:22:43.995Z,103603.42
2019-02-24T01:25:12.694Z,103598.92
2019-02-24T01:27:41.372Z,103605.80
2019-02-24T01:30:11.852Z,103606.78
2019-02-24T01:32:40.935Z,103602.56
2019-02-24T01:35:10.184Z,103604.36
2019-02-24T01:37:38.927Z,103599.37
2019-02-24T01:40:08.803Z,103593.72
2019-02-24T01:42:37.708Z,103588.52
2019-02-24T01:45:09.191Z,103585.00
2019-02-24T01:47:38.175Z,103581.84
2019-02-24T01:50:08.924Z,103580.89
2019-02-24T01:52:37.581Z,103581.08
2019-02-24T01:55:06.424Z,103577.70
2019-02-24T01:57:35.063Z,103576.23
2019-02-24T02:00:04.265Z,103571.39
2019-02-24T02:02:33.062Z,103566.81
2019-02-24T02:05:01.712Z,103565.56
2019-02-24T02:07:30.422Z,103572.82
2019-02-24T02:09:59.277Z,103579.09
2019-02-24T02:12:28.201Z,103580.28
2019-02-24T02:14:56.830Z,103584.66
2019-02-24T02:17:25.473Z,103584.58
2019-02-24T02:19:54.171Z,103582.17
2019-02-24T02:22:22.882Z,103578.82
2019-02-24T02:24:51.591Z,103587.89
2019-02-24T02:27:20.535Z,103585.85
2019-02-24T02:29:49.308Z,103589.27
2019-02-24T02:32:18.074Z,103592.50
2019-02-24T02:34:46.786Z,103589.22
2019-02-24T02:37:15.551Z,103588.41
2019-02-24T02:39:47.194Z,103584.89
2019-02-24T02:42:15.918Z,103581.77
2019-02-24T02:44:44.592Z,103587.19
2019-02-24T02:47:13.309Z,103585.61
2019-02-24T02:49:41.919Z,103584.76
2019-02-24T02:52:10.551Z,103587.66
2019-02-24T02:54:39.227Z,103588.65
2019-02-24T02:57:08.022Z,103598.43
2019-02-24T02:59:36.800Z,103596.00
2019-02-24T03:02:05.429Z,103591.16
2019-02-24T03:04:34.126Z,103584.84
2019-02-24T03:07:07.042Z,103580.50
2019-02-24T03:09:35.724Z,103590.43
2019-02-24T03:12:05.719Z,103587.73
2019-02-24T03:14:34.483Z,103593.88
2019-02-24T03:17:03.390Z,103595.54
2019-02-24T03:19:32.087Z,103593.11
2019-02-24T03:22:00.758Z,103589.88
2019-02-24T03:24:29.479Z,103599.20
2019-02-24T03:26:58.112Z,103593.98
2019-02-24T03:29:27.135Z,103595.19
2019-02-24T03:31:55.942Z,103593.02
2019-02-24T03:34:25.057Z,103592.30
2019-02-24T03:36:53.728Z,103593.23
2019-02-24T03:39:22.472Z,103597.30
2019-02-24T03:41:51.409Z,103591.20
2019-02-24T03:44:20.564Z,103596.09
2019-02-24T03:46:49.650Z,103590.98
2019-02-24T03:49:18.787Z,103590.35
2019-02-24T03:51:47.495Z,103584.41
2019-02-24T03:54:16.144Z,103586.75
2019-02-24T03:56:45.073Z,103575.72
2019-02-24T03:59:15.329Z,103580.19
2019-02-24T04:01:44.534Z,103572.16
2019-02-24T04:04:13.090Z,103565.36
2019-02-24T04:06:42.097Z,103561.34
2019-02-24T04:09:11.348Z,103567.48
2019-02-24T04:11:40.015Z,103569.19
2019-02-24T04:14:08.980Z,103562.55
2019-02-24T04:16:37.782Z,103563.72
2019-02-24T04:19:06.611Z,103564.25
2019-02-24T04:21:35.245Z,103561.82
2019-02-24T04:24:04.121Z,103564.23
2019-02-24T04:26:32.875Z,103564.35
2019-02-24T04:29:01.625Z,103571.40
2019-02-24T04:31:30.585Z,103575.72
2019-02-24T04:33:59.141Z,103578.16
2019-02-24T04:36:27.893Z,103581.80
2019-02-24T04:38:57.001Z,103582.94
2019-02-24T04:41:26.087Z,103582.61
2019-02-24T04:43:54.671Z,103584.80
2019-02-24T04:46:23.403Z,103578.63
2019-02-24T04:48:52.195Z,103573.73
2019-02-24T04:51:21.166Z,103562.64
2019-02-24T04:53:49.881Z,103560.42
2019-02-24T04:56:19.007Z,103550.46
2019-02-24T04:58:47.675Z,103548.61
2019-02-24T05:01:16.633Z,103552.81
2019-02-24T05:03:45.773Z,103555.37
2019-02-24T05:06:14.379Z,103558.02
2019-02-24T05:08:43.208Z,103548.95
2019-02-24T05:11:11.819Z,103549.39
2019-02-24T05:13:40.700Z,103550.94
2019-02-24T05:16:09.496Z,103556.41
2019-02-24T05:18:38.570Z,103566.80
2019-02-24T05:21:07.288Z,103565.13
2019-02-24T05:23:36.201Z,103562.98
2019-02-24T05:26:05.743Z,103571.23
2019-02-24T05:28:34.458Z,103570.89
2019-02-24T05:31:03.414Z,103574.81
2019-02-24T05:33:32.085Z,103583.06
2019-02-24T05:36:00.929Z,103588.09
2019-02-24T05:38:29.558Z,103596.97
2019-02-24T05:40:58.282Z,103600.75
2019-02-24T05:43:26.824Z,103602.70
2019-02-24T05:45:55.305Z,103608.41
2019-02-24T05:48:24.610Z,103605.34
2019-02-24T05:50:53.625Z,103607.45
2019-02-24T05:53:22.308Z,103599.87
2019-02-24T05:55:50.983Z,103604.64
2019-02-24T05:58:19.730Z,103606.06
2019-02-24T06:00:48.432Z,103606.48
2019-02-24T06:03:17.502Z,103610.24
2019-02-24T06:05:46.217Z,103607.73
2019-02-24T06:08:15.291Z,103610.54
2019-02-24T06:10:44.008Z,103613.70
2019-02-24T06:13:12.787Z,103619.09
2019-02-24T06:15:41.394Z,103618.03
2019-02-24T06:18:10.063Z,103614.05
2019-02-24T06:20:39.146Z,103608.39
2019-02-24T06:23:07.919Z,103609.30
2019-02-24T06:25:36.515Z,103613.37
2019-02-24T06:28:05.314Z,103614.44
2019-02-24T06:30:33.961Z,103627.83
2019-02-24T06:33:02.582Z,103609.69
2019-02-24T06:35:31.337Z,103610.89
2019-02-24T06:37:59.897Z,103613.45
2019-02-24T06:40:28.749Z,103615.34
2019-02-24T06:42:57.336Z,103608.58
2019-02-24T06:45:26.147Z,103616.15
2019-02-24T06:47:54.852Z,103623.42
2019-02-24T06:50:23.554Z,103624.41
2019-02-24T06:52:52.116Z,103625.17
2019-02-24T06:55:20.841Z,103629.72
2019-02-24T06:57:49.470Z,103629.84
2019-02-24T07:00:18.056Z,103632.92
2019-02-24T07:02:46.788Z,103634.72
2019-02-24T07:05:15.597Z,103638.05
2019-02-24T07:07:44.387Z,103651.33
2019-02-24T07:10:13.006Z,103651.37
2019-02-24T07:12:41.701Z,103657.05
2019-02-24T07:15:10.258Z,103662.50
2019-02-24T07:17:38.838Z,103660.39
2019-02-24T07:20:08.703Z,103659.47
2019-02-24T07:22:37.498Z,103662.42
2019-02-24T07:25:07.511Z,103660.27
2019-02-24T07:27:36.133Z,103671.62
2019-02-24T07:30:07.700Z,103676.60
2019-02-24T07:32:36.733Z,103579.14
2019-02-24T07:35:06.928Z,103685.96
2019-02-24T07:37:35.696Z,103684.42
2019-02-24T07:40:06.412Z,103678.16
2019-02-24T07:42:35.061Z,103685.84
2019-02-24T07:45:05.873Z,103679.38
2019-02-24T07:47:42.242Z,103681.73
2019-02-24T07:50:11.281Z,103703.51
2019-02-24T07:52:40.413Z,103683.44
2019-02-24T07:55:09.165Z,103677.78
2019-02-24T07:57:38.218Z,103679.77
2019-02-24T08:00:10.467Z,103683.60
2019-02-24T08:05:09.266Z,103681.45
2019-02-24T08:07:38.120Z,103673.64
2019-02-24T08:10:08.336Z,103677.43
2019-02-24T08:12:37.227Z,103676.38
2019-02-24T08:15:10.112Z,103679.17
2019-02-24T08:17:40.733Z,103674.20
2019-02-24T08:20:10.797Z,103676.53
2019-02-24T08:22:40.710Z,103677.72
2019-02-24T08:25:23.452Z,103676.80
2019-02-24T08:27:55.505Z,103670.87
2019-02-24T08:30:23.847Z,103667.00
2019-02-24T08:32:52.593Z,103669.35
2019-02-24T08:35:21.221Z,103670.83
2019-02-24T08:37:50.301Z,103677.29
2019-02-24T08:40:18.972Z,103679.95
2019-02-24T08:42:48.273Z,103672.80
2019-02-24T08:45:17.026Z,103675.11
2019-02-24T08:47:45.741Z,103678.39
2019-02-24T08:50:14.743Z,103674.34
2019-02-24T08:52:43.566Z,103682.34
2019-02-24T08:55:12.903Z,103684.84
2019-02-24T08:57:41.690Z,103683.98
2019-02-24T09:00:13.824Z,103644.83
2019-02-24T09:02:43.514Z,103683.98
2019-02-24T09:05:12.604Z,103684.47
2019-02-24T09:07:41.835Z,103676.70
2019-02-24T09:10:10.779Z,103673.34
2019-02-24T09:12:40.265Z,103668.64
2019-02-24T09:15:12.001Z,103663.30
2019-02-24T09:17:42.411Z,103655.14
2019-02-24T09:20:14.827Z,103656.72
2019-02-24T09:22:45.055Z,103655.25
2019-02-24T09:25:13.923Z,103663.32
2019-02-24T09:27:42.757Z,103657.30
2019-02-24T09:30:14.761Z,103651.86
2019-02-24T09:32:44.348Z,103654.92
2019-02-24T09:35:13.190Z,103655.58
2019-02-24T09:37:41.989Z,103650.58
2019-02-24T09:40:14.882Z,103655.84
2019-02-24T09:42:43.534Z,103653.84
2019-02-24T09:45:13.445Z,103651.72
2019-02-24T09:47:47.390Z,103665.69
2019-02-24T09:50:16.696Z,103667.72
2019-02-24T09:52:45.488Z,103667.58
2019-02-24T09:55:14.234Z,103674.14
2019-02-24T09:57:45.104Z,103671.94
2019-02-24T10:00:17.788Z,103678.27
2019-02-24T10:02:47.572Z,103684.02
2019-02-24T10:05:16.483Z,103693.44
2019-02-24T10:07:45.517Z,103701.54
2019-02-24T10:10:17.739Z,103703.38
2019-02-24T10:12:46.689Z,103703.38
2019-02-24T10:15:25.569Z,103713.95
2019-02-24T10:17:54.409Z,103700.46
2019-02-24T10:20:23.088Z,103695.41
2019-02-24T10:23:00.873Z,103693.30
2019-02-24T10:25:31.478Z,103699.73
2019-02-24T10:28:00.688Z,103697.86
2019-02-24T10:30:29.876Z,103706.78
2019-02-24T10:32:58.586Z,103705.66
2019-02-24T10:35:28.007Z,103709.02
2019-02-24T10:37:57.204Z,103716.12
2019-02-24T10:40:27.010Z,103711.49
2019-02-24T10:42:56.595Z,103716.75
2019-02-24T10:45:25.429Z,103703.06
2019-02-24T10:47:55.899Z,103708.26
2019-02-24T10:50:25.087Z,103703.35
2019-02-24T10:52:54.183Z,103694.05
2019-02-24T10:55:23.200Z,103694.05
2019-02-24T10:57:52.074Z,103702.18
2019-02-24T11:00:22.847Z,103696.14
2019-02-24T11:02:52.180Z,103701.36
2019-02-24T11:05:21.412Z,103692.80
2019-02-24T11:07:51.668Z,103694.52
2019-02-24T11:10:21.496Z,103694.30
2019-02-24T11:12:51.169Z,103682.41
2019-02-24T11:15:19.943Z,103677.74
2019-02-24T11:17:48.568Z,103674.80
2019-02-24T11:20:19.743Z,103678.88
2019-02-24T11:22:49.041Z,103681.30
2019-02-24T11:25:17.992Z,103690.09
2019-02-24T11:27:46.828Z,103689.33
2019-02-24T11:30:16.666Z,103706.77
2019-02-24T11:32:45.287Z,103701.03
2019-02-24T11:35:14.265Z,103692.06
2019-02-24T11:37:42.972Z,103693.05
2019-02-24T11:40:17.770Z,103679.98
2019-02-24T11:42:46.658Z,103678.91
2019-02-24T11:45:16.563Z,103680.63
2019-02-24T11:47:46.198Z,103675.12
2019-02-24T11:50:15.776Z,103670.52
2019-02-24T11:52:45.479Z,103673.94
2019-02-24T11:55:15.167Z,103682.98
2019-02-24T11:57:44.156Z,103678.16
2019-02-24T12:00:19.239Z,103676.47
2019-02-24T12:02:48.329Z,103686.33
2019-02-24T12:05:17.393Z,103693.86
2019-02-24T12:07:46.496Z,103696.19
2019-02-24T12:10:15.918Z,103691.18
2019-02-24T12:12:48.433Z,103701.48
2019-02-24T12:15:21.390Z,103695.35
2019-02-24T12:17:52.055Z,103696.78
2019-02-24T12:20:21.505Z,103697.83
2019-02-24T12:22:52.231Z,103695.77
2019-02-24T12:25:21.384Z,103682.12
2019-02-24T12:27:50.032Z,103673.32
2019-02-24T12:30:18.763Z,103665.52
2019-02-24T12:32:47.403Z,103665.41
2019-02-24T12:35:16.109Z,103664.88
2019-02-24T12:37:44.741Z,103670.97
2019-02-24T12:40:15.658Z,103669.95
2019-02-24T12:42:47.878Z,103664.85
2019-02-24T12:45:18.800Z,103659.55
2019-02-24T12:47:47.929Z,103664.13
2019-02-24T12:50:17.836Z,103660.45
2019-02-24T12:52:46.588Z,103655.09
2019-02-24T12:55:22.392Z,103646.49
2019-02-24T12:57:51.498Z,103650.63
2019-02-24T13:00:29.235Z,103662.27
2019-02-24T13:02:58.224Z,103653.87
2019-02-24T13:05:26.954Z,103649.78
2019-02-24T13:07:56.462Z,103650.58
2019-02-24T13:10:25.148Z,103658.97
2019-02-24T13:12:54.078Z,103655.22
2019-02-24T13:15:22.883Z,103648.83
2019-02-24T13:17:51.520Z,103647.06
2019-02-24T13:20:20.317Z,103652.38
2019-02-24T13:22:49.048Z,103653.63
2019-02-24T13:25:17.747Z,103648.85
2019-02-24T13:27:46.626Z,103648.83
2019-02-24T13:30:18.157Z,103648.11
2019-02-24T13:32:46.910Z,103646.48
2019-02-24T13:35:15.760Z,103643.30
2019-02-24T13:37:44.588Z,103642.15
2019-02-24T13:40:15.897Z,103641.36
2019-02-24T13:42:44.569Z,103631.76
2019-02-24T13:45:19.303Z,103630.59
2019-02-24T13:47:48.004Z,103628.73
2019-02-24T13:50:16.686Z,103627.27
2019-02-24T13:52:45.394Z,103623.88
2019-02-24T13:55:15.360Z,103627.77
2019-02-24T13:57:44.154Z,103626.05
2019-02-24T14:00:18.291Z,103620.41
2019-02-24T14:02:47.027Z,103622.14
2019-02-24T14:05:15.760Z,103631.84
2019-02-24T14:07:44.680Z,103633.19
2019-02-24T14:10:15.301Z,103625.59
2019-02-24T14:12:43.918Z,103623.61
2019-02-24T14:15:16.449Z,103622.59
2019-02-24T14:17:45.069Z,103626.64
2019-02-24T14:20:15.747Z,103627.42
2019-02-24T14:22:44.376Z,103619.84
2019-02-24T14:25:17.545Z,103618.91
2019-02-24T14:27:46.328Z,103618.20
2019-02-24T14:30:17.470Z,103616.18
2019-02-24T14:32:46.228Z,103613.13
2019-02-24T14:35:17.496Z,103615.05
2019-02-24T14:37:46.208Z,103608.92
2019-02-24T14:40:14.868Z,103603.64
2019-02-24T14:42:43.613Z,103611.12
2019-02-24T14:45:14.799Z,103618.98
2019-02-24T14:47:43.546Z,103611.62
2019-02-24T14:50:12.348Z,103611.94
2019-02-24T14:52:40.973Z,103611.18
2019-02-24T14:55:30.448Z,103613.23
2019-02-24T14:57:59.060Z,103614.02
2019-02-24T15:00:27.715Z,103610.76
2019-02-24T15:02:56.345Z,103608.90
2019-02-24T15:05:25.120Z,103612.13
2019-02-24T15:07:53.825Z,103612.38
2019-02-24T15:10:24.997Z,103610.78
2019-02-24T15:12:53.683Z,103609.87
2019-02-24T15:15:32.854Z,103603.02
2019-02-24T15:17:57.550Z,103605.17
2019-02-24T15:20:26.295Z,103604.27
2019-02-24T15:22:55.149Z,103602.65
2019-02-24T15:25:23.881Z,103597.10
2019-02-24T15:27:52.625Z,103604.02
2019-02-24T15:30:35.539Z,103600.81
2019-02-24T15:33:05.101Z,103601.92
2019-02-24T15:35:33.804Z,103592.16
2019-02-24T15:38:02.596Z,103596.35
2019-02-24T15:40:31.225Z,103596.81
2019-02-24T15:42:59.926Z,103592.20
2019-02-24T15:45:28.638Z,103593.19
2019-02-24T15:48:00.934Z,103592.04
2019-02-24T15:50:29.699Z,103595.52
2019-02-24T15:52:58.358Z,103587.42
2019-02-24T15:55:27.165Z,103594.06
2019-02-24T15:57:56.123Z,103588.27
2019-02-24T16:00:27.863Z,103591.42
2019-02-24T16:03:01.600Z,103582.94
2019-02-24T16:05:27.064Z,103586.08
2019-02-24T16:07:55.903Z,103584.74
2019-02-24T16:10:24.602Z,103588.95
2019-02-24T16:12:53.292Z,103577.46
2019-02-24T16:15:26.905Z,103587.80
2019-02-24T16:17:55.680Z,103589.24
2019-02-24T16:20:29.904Z,103589.78
2019-02-24T16:22:58.688Z,103592.05
2019-02-24T16:25:27.431Z,103585.03
2019-02-24T16:27:56.237Z,103580.92
2019-02-24T16:30:24.956Z,103572.48
2019-02-24T16:32:53.772Z,103579.49
2019-02-24T16:35:22.538Z,103580.05
2019-02-24T16:37:51.277Z,103576.14
2019-02-24T16:40:25.542Z,103572.38
2019-02-24T16:42:54.223Z,103570.97
2019-02-24T16:45:22.979Z,103568.16
2019-02-24T16:47:51.710Z,103571.24
2019-02-24T16:50:23.172Z,103573.38
2019-02-24T16:52:51.903Z,103566.06
2019-02-24T16:55:20.593Z,103566.88
2019-02-24T16:57:49.220Z,103567.75
2019-02-24T17:00:25.248Z,103571.56
2019-02-24T17:02:53.964Z,103567.56
2019-02-24T17:05:22.719Z,103563.73
2019-02-24T17:07:51.354Z,103571.14
2019-02-24T17:10:22.239Z,103568.90
2019-02-24T17:12:50.859Z,103562.39
2019-02-24T17:15:19.730Z,103569.16
2019-02-24T17:17:48.371Z,103568.54
2019-02-24T17:20:22.266Z,103576.16
2019-02-24T17:22:50.918Z,103579.11
2019-02-24T17:25:19.610Z,103589.39
2019-02-24T17:27:48.812Z,103599.14
2019-02-24T17:30:18.337Z,103607.09
2019-02-24T17:32:47.032Z,103606.13
2019-02-24T17:35:15.978Z,103613.64
2019-02-24T17:37:44.592Z,103615.36
2019-02-24T17:40:19.556Z,103620.55
2019-02-24T17:42:51.622Z,103608.81
2019-02-24T17:45:20.447Z,103613.05
2019-02-24T17:47:49.178Z,103619.81
2019-02-24T17:50:18.279Z,103621.51
2019-02-24T17:52:47.106Z,103619.50
2019-02-24T17:55:17.261Z,103625.56
2019-02-24T17:57:46.046Z,103619.84
2019-02-24T18:00:30.987Z,103619.49
2019-02-24T18:02:59.793Z,103621.31
2019-02-24T18:05:28.417Z,103611.72
2019-02-24T18:07:57.860Z,103631.56
2019-02-24T18:10:26.705Z,103648.54
2019-02-24T18:12:55.392Z,103646.17
2019-02-24T18:15:24.169Z,103637.11
2019-02-24T18:17:52.856Z,103635.88
2019-02-24T18:20:24.561Z,103639.22
2019-02-24T18:22:53.369Z,103644.00
2019-02-24T18:25:22.274Z,103645.67
2019-02-24T18:27:50.928Z,103630.91
2019-02-24T18:30:25.754Z,103636.74
2019-02-24T18:32:54.506Z,103642.90
2019-02-24T18:35:23.798Z,103640.20
2019-02-24T18:37:52.455Z,103640.70
2019-02-24T18:40:21.134Z,103635.11
2019-02-24T18:42:59.418Z,103632.80
2019-02-24T18:45:20.157Z,103632.17
2019-02-24T18:47:49.867Z,103636.55
2019-02-24T18:50:19.727Z,103636.86
2019-02-24T18:52:49.524Z,103640.36
2019-02-24T18:55:18.254Z,103635.74
2019-02-24T18:57:47.050Z,103642.72
2019-02-24T19:00:19.409Z,103642.17
2019-02-24T19:02:48.778Z,103642.48
2019-02-24T19:05:18.091Z,103638.00
2019-02-24T19:07:47.595Z,103636.47
2019-02-24T19:10:21.400Z,103633.92
2019-02-24T19:12:51.550Z,103636.42
2019-02-24T19:15:23.361Z,103636.77
2019-02-24T19:17:52.798Z,103635.11
2019-02-24T19:20:24.043Z,103640.84
2019-02-24T19:22:53.326Z,103646.89
2019-02-24T19:25:23.317Z,103641.95
2019-02-24T19:27:52.707Z,103637.03
2019-02-24T19:30:23.106Z,103646.17
2019-02-24T19:32:51.905Z,103650.91
2019-02-24T19:35:20.667Z,103656.00
2019-02-24T19:37:49.512Z,103652.48
2019-02-24T19:40:20.660Z,103655.35
2019-02-24T19:43:00.223Z,103659.92
2019-02-24T19:45:31.770Z,103653.98
2019-02-24T19:48:00.803Z,103653.47
2019-02-24T19:50:30.030Z,103657.42
2019-02-24T19:52:58.574Z,103659.45
2019-02-24T19:55:27.495Z,103659.12
2019-02-24T19:57:56.419Z,103660.23
2019-02-24T20:00:27.056Z,103658.08
2019-02-24T20:02:56.089Z,103661.69
2019-02-24T20:05:25.805Z,103661.98
2019-02-24T20:07:55.254Z,103671.08
2019-02-24T20:10:31.067Z,103667.70
2019-02-24T20:12:59.787Z,103663.70
2019-02-24T20:15:28.409Z,103666.60
2019-02-24T20:17:57.054Z,103666.56
2019-02-24T20:20:25.738Z,103666.30
2019-02-24T20:22:54.515Z,103670.81
2019-02-24T20:25:23.978Z,103677.66
2019-02-24T20:27:52.690Z,103674.70
2019-02-24T20:30:27.087Z,103676.09
2019-02-24T20:32:55.711Z,103681.72
2019-02-24T20:35:25.378Z,103688.48
2019-02-24T20:37:54.339Z,103682.01
2019-02-24T20:40:23.063Z,103694.70
2019-02-24T20:42:53.843Z,103684.98
2019-02-24T20:45:25.591Z,103685.68
2019-02-24T20:47:55.678Z,103685.41
2019-02-24T20:50:30.339Z,103695.13
2019-02-24T20:52:59.035Z,103694.20
2019-02-24T20:55:28.171Z,103697.87
2019-02-24T20:57:57.013Z,103697.64
2019-02-24T21:00:28.546Z,103695.74
2019-02-24T21:03:06.512Z,103689.44
2019-02-24T21:05:35.677Z,103692.99
2019-02-24T21:08:05.258Z,103686.73
2019-02-24T21:10:35.379Z,103682.53
2019-02-24T21:13:06.916Z,103654.13
2019-02-24T21:15:36.648Z,103689.16
2019-02-24T21:18:07.212Z,103688.39
2019-02-24T21:20:36.074Z,103695.45
2019-02-24T21:23:06.351Z,103700.06
2019-02-24T21:25:37.293Z,103670.47
2019-02-24T21:28:06.236Z,103704.58
2019-02-24T21:30:36.269Z,103709.98
2019-02-24T21:33:16.800Z,103711.81
2019-02-24T21:35:47.761Z,103606.26
2019-02-24T21:38:18.314Z,103715.78
2019-02-24T21:40:50.033Z,103715.44
2019-02-24T21:43:21.381Z,103715.86
2019-02-24T21:45:52.085Z,103720.38
2019-02-24T21:48:23.070Z,103725.91
2019-02-24T21:50:51.960Z,103725.50
2019-02-24T21:53:42.365Z,103722.07
2019-02-24T21:56:14.038Z,103718.49
2019-02-24T21:58:42.850Z,103714.63
2019-02-24T22:01:12.619Z,103715.75
2019-02-24T22:03:41.308Z,103716.02
2019-02-24T22:06:09.845Z,103717.63
2019-02-24T22:08:38.536Z,103722.59
2019-02-24T22:11:07.144Z,103715.38
2019-02-24T22:13:35.888Z,103712.77
2019-02-24T22:16:04.767Z,103711.65
2019-02-24T22:18:33.490Z,103722.56
2019-02-24T22:21:02.163Z,103718.48
2019-02-24T22:23:32.115Z,103722.92
2019-02-24T22:26:00.879Z,103726.81
2019-02-24T22:28:29.515Z,103732.09
2019-02-24T22:30:58.134Z,103725.68
2019-02-24T22:33:26.792Z,103723.45
2019-02-24T22:35:55.519Z,103721.38
2019-02-24T22:38:24.382Z,103718.86
2019-02-24T22:40:54.599Z,103725.58
2019-02-24T22:43:23.337Z,103727.60
2019-02-24T22:45:52.049Z,103731.61
2019-02-24T22:48:20.672Z,103731.72
2019-02-24T22:50:49.319Z,103733.80
2019-02-24T22:53:17.968Z,103737.88
2019-02-24T22:55:46.611Z,103737.88
2019-02-24T22:58:15.364Z,103737.03
2019-02-24T23:00:54.032Z,103741.37
2019-02-24T23:03:28.337Z,103741.97
2019-02-24T23:05:58.978Z,103735.58
2019-02-24T23:08:28.649Z,103739.95
2019-02-24T23:10:58.130Z,103736.35
2019-02-24T23:13:27.693Z,103739.47
2019-02-24T23:15:57.179Z,103733.53
2019-02-24T23:18:26.983Z,103731.86
2019-02-24T23:20:55.614Z,103730.75
2019-02-24T23:23:25.073Z,103727.48
2019-02-24T23:25:54.771Z,103727.01
2019-02-24T23:28:23.450Z,103721.27
2019-02-24T23:30:52.140Z,103711.25
2019-02-24T23:33:20.849Z,103710.70
2019-02-24T23:35:49.540Z,103701.53
2019-02-24T23:38:18.338Z,103700.06
2019-02-24T23:40:46.996Z,103700.55
2019-02-24T23:43:15.766Z,103705.14
2019-02-24T23:45:44.467Z,103702.30
2019-02-24T23:48:13.178Z,103698.19
2019-02-24T23:50:41.757Z,103695.49
2019-02-24T23:53:10.479Z,103692.03
2019-02-24T23:55:39.196Z,103686.69
2019-02-24T23:58:07.828Z,103693.96
